sensor_id;sensor_type;location;lat;lon;timestamp;pressure;altitude;pressure_sealevel;temperature;humidity
75414;BME280;64758;52.122;5.404;2023-08-06T00:00:53;100678.47;;;14.95;100.00
75414;BME280;64758;52.122;5.404;2023-08-06T00:03:20;100667.38;;;14.92;100.00
75414;BME280;64758;52.122;5.404;2023-08-06T00:05:47;100670.06;;;14.92;100.00
75414;BME280;64758;52.122;5.404;2023-08-06T00:08:13;100672.72;;;14.92;100.00
75414;BME280;64758;52.122;5.404;2023-08-06T00:10:40;100672.13;;;14.90;100.00
75414;BME280;64758;52.122;5.404;2023-08-06T00:13:08;100672.13;;;14.90;100.00
75414;BME280;64758;52.122;5.404;2023-08-06T00:15:34;100672.53;;;14.93;100.00
75414;BME280;64758;52.122;5.404;2023-08-06T00:18:01;100678.47;;;14.95;100.00
75414;BME280;64758;52.122;5.404;2023-08-06T00:20:28;100667.97;;;14.94;100.00
75414;BME280;64758;52.122;5.404;2023-08-06T00:22:54;100675.38;;;14.98;100.00
75414;BME280;64758;52.122;5.404;2023-08-06T00:25:21;100678.84;;;14.99;100.00
75414;BME280;64758;52.122;5.404;2023-08-06T00:27:47;100670.38;;;15.02;100.00
75414;BME280;64758;52.122;5.404;2023-08-06T00:30:14;100676.16;;;14.99;100.00
75414;BME280;64758;52.122;5.404;2023-08-06T00:32:40;100663.41;;;15.01;100.00
75414;BME280;64758;52.122;5.404;2023-08-06T00:35:07;100665.28;;;15.00;100.00
75414;BME280;64758;52.122;5.404;2023-08-06T00:37:34;100665.03;;;15.02;100.00
75414;BME280;64758;52.122;5.404;2023-08-06T00:40:00;100669.94;;;15.05;100.00
75414;BME280;64758;52.122;5.404;2023-08-06T00:42:27;100666.69;;;15.03;100.00
75414;BME280;64758;52.122;5.404;2023-08-06T00:44:53;100668.31;;;15.04;100.00
75414;BME280;64758;52.122;5.404;2023-08-06T00:47:20;100666.69;;;15.03;100.00
75414;BME280;64758;52.122;5.404;2023-08-06T00:49:47;100664.22;;;15.01;100.00
75414;BME280;64758;52.122;5.404;2023-08-06T00:52:14;100669.59;;;15.01;100.00
75414;BME280;64758;52.122;5.404;2023-08-06T00:54:41;100663.41;;;15.01;100.00
75414;BME280;64758;52.122;5.404;2023-08-06T00:57:09;100661.75;;;15.00;100.00
75414;BME280;64758;52.122;5.404;2023-08-06T00:59:35;100665.63;;;15.04;100.00
75414;BME280;64758;52.122;5.404;2023-08-06T01:02:02;100672.03;;;15.03;100.00
75414;BME280;64758;52.122;5.404;2023-08-06T01:04:29;100672.63;;;15.05;100.00
75414;BME280;64758;52.122;5.404;2023-08-06T01:07:19;100669.16;;;15.04;100.00
75414;BME280;64758;52.122;5.404;2023-08-06T01:09:57;100665.63;;;15.04;100.00
75414;BME280;64758;52.122;5.404;2023-08-06T01:15:34;100665.63;;;15.04;100.00
75414;BME280;64758;52.122;5.404;2023-08-06T01:18:04;100659.25;;;15.05;100.00
75414;BME280;64758;52.122;5.404;2023-08-06T01:20:31;100659.69;;;15.02;100.00
75414;BME280;64758;52.122;5.404;2023-08-06T01:22:57;100651.22;;;15.05;100.00
75414;BME280;64758;52.122;5.404;2023-08-06T01:25:33;100658.22;;;15.06;100.00
75414;BME280;64758;52.122;5.404;2023-08-06T01:28:11;100654.72;;;15.05;100.00
75414;BME280;64758;52.122;5.404;2023-08-06T01:30:41;100657.41;;;15.05;100.00
75414;BME280;64758;52.122;5.404;2023-08-06T01:33:12;100660.44;;;15.09;100.00
75414;BME280;64758;52.122;5.404;2023-08-06T01:35:42;100659.66;;;15.08;100.00
75414;BME280;64758;52.122;5.404;2023-08-06T01:38:08;100662.91;;;15.10;100.00
75414;BME280;64758;52.122;5.404;2023-08-06T01:40:35;100658.81;;;15.08;100.00
75414;BME280;64758;52.122;5.404;2023-08-06T01:43:01;100662.75;;;15.05;100.00
75414;BME280;64758;52.122;5.404;2023-08-06T01:45:28;100653.91;;;15.05;100.00
75414;BME280;64758;52.122;5.404;2023-08-06T01:47:54;100655.53;;;15.06;100.00
75414;BME280;64758;52.122;5.404;2023-08-06T01:50:21;100666.63;;;15.09;100.00
75414;BME280;64758;52.122;5.404;2023-08-06T01:52:48;100665.00;;;15.08;100.00
75414;BME280;64758;52.122;5.404;2023-08-06T01:55:14;100664.16;;;15.08;100.00
75414;BME280;64758;52.122;5.404;2023-08-06T01:57:41;100668.72;;;15.07;100.00
75414;BME280;64758;52.122;5.404;2023-08-06T02:00:07;100673.22;;;15.07;100.00
75414;BME280;64758;52.122;5.404;2023-08-06T02:02:34;100666.22;;;15.06;100.00
75414;BME280;64758;52.122;5.404;2023-08-06T02:05:01;100660.88;;;15.06;100.00
75414;BME280;64758;52.122;5.404;2023-08-06T02:07:27;100667.88;;;15.07;100.00
75414;BME280;64758;52.122;5.404;2023-08-06T02:09:54;100665.63;;;15.04;100.00
75414;BME280;64758;52.122;5.404;2023-08-06T02:12:20;100666.06;;;15.01;100.00
75414;BME280;64758;52.122;5.404;2023-08-06T02:14:47;100671.25;;;14.96;100.00
75414;BME280;64758;52.122;5.404;2023-08-06T02:17:14;100670.81;;;14.99;100.00
75414;BME280;64758;52.122;5.404;2023-08-06T02:19:40;100666.50;;;14.98;100.00
75414;BME280;64758;52.122;5.404;2023-08-06T02:22:07;100670.81;;;14.99;100.00
75414;BME280;64758;52.122;5.404;2023-08-06T02:24:33;100667.97;;;14.94;100.00
75414;BME280;64758;52.122;5.404;2023-08-06T02:27:00;100673.34;;;14.94;100.00
75414;BME280;64758;52.122;5.404;2023-08-06T02:29:26;100670.72;;;14.87;100.00
75414;BME280;64758;52.122;5.404;2023-08-06T02:31:53;100670.31;;;14.84;100.00
75414;BME280;64758;52.122;5.404;2023-08-06T02:34:20;100666.00;;;14.83;100.00
75414;BME280;64758;52.122;5.404;2023-08-06T02:36:46;100669.72;;;14.82;100.00
75414;BME280;64758;52.122;5.404;2023-08-06T02:39:13;100658.66;;;14.78;100.00
75414;BME280;64758;52.122;5.404;2023-08-06T02:41:39;100665.41;;;14.81;100.00
75414;BME280;64758;52.122;5.404;2023-08-06T02:44:06;100661.94;;;14.80;100.00
75414;BME280;64758;52.122;5.404;2023-08-06T02:46:33;100660.91;;;14.81;100.00
75414;BME280;64758;52.122;5.404;2023-08-06T02:48:59;100656.00;;;14.78;100.00
75414;BME280;64758;52.122;5.404;2023-08-06T02:51:26;100659.47;;;14.79;100.00
75414;BME280;64758;52.122;5.404;2023-08-06T02:53:52;100654.19;;;14.72;100.00
75414;BME280;64758;52.122;5.404;2023-08-06T02:56:19;100654.34;;;14.77;100.00
75414;BME280;64758;52.122;5.404;2023-08-06T02:58:45;100654.63;;;14.69;100.00
75414;BME280;64758;52.122;5.404;2023-08-06T03:01:12;100643.09;;;14.69;100.00
75414;BME280;64758;52.122;5.404;2023-08-06T03:03:39;100652.97;;;14.68;100.00
75414;BME280;64758;52.122;5.404;2023-08-06T03:06:05;100644.72;;;14.70;100.00
75414;BME280;64758;52.122;5.404;2023-08-06T03:08:32;100643.09;;;14.69;100.00
75414;BME280;64758;52.122;5.404;2023-08-06T03:10:58;100637.13;;;14.67;100.00
75414;BME280;64758;52.122;5.404;2023-08-06T03:13:25;100639.59;;;14.68;100.00
75414;BME280;64758;52.122;5.404;2023-08-06T03:15:56;100640.81;;;14.72;100.00
75414;BME280;64758;52.122;5.404;2023-08-06T03:18:23;100643.06;;;14.75;100.00
75414;BME280;64758;52.122;5.404;2023-08-06T03:20:49;100644.44;;;14.78;100.00
75414;BME280;64758;52.122;5.404;2023-08-06T03:23:16;100643.41;;;14.79;100.00
75414;BME280;64758;52.122;5.404;2023-08-06T03:25:43;100633.16;;;14.76;100.00
75414;BME280;64758;52.122;5.404;2023-08-06T03:28:10;100643.25;;;14.74;100.00
75414;BME280;64758;52.122;5.404;2023-08-06T03:30:37;100638.50;;;14.76;100.00
75414;BME280;64758;52.122;5.404;2023-08-06T03:33:03;100648.75;;;14.79;100.00
75414;BME280;64758;52.122;5.404;2023-08-06T03:35:30;100646.09;;;14.79;100.00
75414;BME280;64758;52.122;5.404;2023-08-06T03:37:56;100642.81;;;14.77;100.00
75414;BME280;64758;52.122;5.404;2023-08-06T03:40:23;100635.03;;;14.75;100.00
75414;BME280;64758;52.122;5.404;2023-08-06T03:42:49;100639.97;;;14.72;100.00
75414;BME280;64758;52.122;5.404;2023-08-06T03:45:16;100645.94;;;14.74;100.00
75414;BME280;64758;52.122;5.404;2023-08-06T03:47:43;100645.94;;;14.74;100.00
75414;BME280;64758;52.122;5.404;2023-08-06T03:50:09;100645.50;;;14.77;100.00
75414;BME280;64758;52.122;5.404;2023-08-06T03:52:36;100649.19;;;14.76;100.00
75414;BME280;64758;52.122;5.404;2023-08-06T03:55:03;100647.72;;;14.80;100.00
75414;BME280;64758;52.122;5.404;2023-08-06T03:57:29;100646.25;;;14.84;100.00
75414;BME280;64758;52.122;5.404;2023-08-06T03:59:56;100646.75;;;14.74;100.00
75414;BME280;64758;52.122;5.404;2023-08-06T04:02:22;100644.44;;;14.78;100.00
75414;BME280;64758;52.122;5.404;2023-08-06T04:04:49;100646.09;;;14.79;100.00
75414;BME280;64758;52.122;5.404;2023-08-06T04:07:15;100648.34;;;14.82;100.00
75414;BME280;64758;52.122;5.404;2023-08-06T04:09:57;100639.72;;;14.80;100.00
75414;BME280;64758;52.122;5.404;2023-08-06T04:12:23;100654.13;;;14.79;100.00
75414;BME280;64758;52.122;5.404;2023-08-06T04:14:51;100645.28;;;14.78;100.00
75414;BME280;64758;52.122;5.404;2023-08-06T04:17:19;100649.16;;;14.82;100.00
75414;BME280;64758;52.122;5.404;2023-08-06T04:19:53;100654.94;;;14.79;100.00
75414;BME280;64758;52.122;5.404;2023-08-06T04:22:20;100654.72;;;14.81;100.00
75414;BME280;64758;52.122;5.404;2023-08-06T04:24:47;100655.75;;;14.80;100.00
75414;BME280;64758;52.122;5.404;2023-08-06T04:27:14;100653.31;;;14.78;100.00
75414;BME280;64758;52.122;5.404;2023-08-06T04:29:42;100657.38;;;14.81;100.00
75414;BME280;64758;52.122;5.404;2023-08-06T04:32:09;100647.53;;;14.81;100.00
75414;BME280;64758;52.122;5.404;2023-08-06T04:34:37;100658.00;;;14.83;100.00
75414;BME280;64758;52.122;5.404;2023-08-06T04:37:04;100653.06;;;14.80;100.00
75414;BME280;64758;52.122;5.404;2023-08-06T04:39:31;100659.03;;;14.82;100.00
75414;BME280;64758;52.122;5.404;2023-08-06T04:41:57;100669.72;;;14.82;100.00
75414;BME280;64758;52.122;5.404;2023-08-06T04:44:24;100671.38;;;14.83;100.00
75414;BME280;64758;52.122;5.404;2023-08-06T04:46:51;100678.19;;;14.79;100.00
75414;BME280;64758;52.122;5.404;2023-08-06T04:49:19;100671.19;;;14.78;100.00
75414;BME280;64758;52.122;5.404;2023-08-06T04:51:45;100665.66;;;14.79;100.00
75414;BME280;64758;52.122;5.404;2023-08-06T04:54:12;100678.34;;;14.84;100.00
75414;BME280;64758;52.122;5.404;2023-08-06T04:56:39;100682.91;;;14.83;100.00
75414;BME280;64758;52.122;5.404;2023-08-06T04:59:05;100673.41;;;14.87;100.00
75414;BME280;64758;52.122;5.404;2023-08-06T05:01:32;100677.47;;;14.90;100.00
75414;BME280;64758;52.122;5.404;2023-08-06T05:03:58;100670.50;;;14.89;100.00
75414;BME280;64758;52.122;5.404;2023-08-06T05:06:25;100676.25;;;14.92;100.00
75414;BME280;64758;52.122;5.404;2023-08-06T05:08:52;100683.44;;;14.92;100.00
75414;BME280;64758;52.122;5.404;2023-08-06T05:11:18;100687.16;;;14.91;100.00
75414;BME280;64758;52.122;5.404;2023-08-06T05:13:45;100688.78;;;14.92;100.00
75414;BME280;64758;52.122;5.404;2023-08-06T05:16:11;100685.06;;;14.93;100.00
75414;BME280;64758;52.122;5.404;2023-08-06T05:18:38;100693.69;;;14.95;100.00
75414;BME280;64758;52.122;5.404;2023-08-06T05:21:05;100687.53;;;14.94;100.00
75414;BME280;64758;52.122;5.404;2023-08-06T05:23:32;100697.56;;;14.99;100.00
75414;BME280;64758;52.122;5.404;2023-08-06T05:25:58;100708.28;;;14.99;100.00
75414;BME280;64758;52.122;5.404;2023-08-06T05:28:25;100715.88;;;15.02;100.00
75414;BME280;64758;52.122;5.404;2023-08-06T05:30:51;100707.66;;;14.97;100.00
75414;BME280;64758;52.122;5.404;2023-08-06T05:33:18;100713.03;;;14.97;100.00
75414;BME280;64758;52.122;5.404;2023-08-06T05:35:45;100712.81;;;14.98;100.00
75414;BME280;64758;52.122;5.404;2023-08-06T05:38:11;100714.66;;;14.98;100.00
75414;BME280;64758;52.122;5.404;2023-08-06T05:40:38;100713.25;;;14.95;100.00
75414;BME280;64758;52.122;5.404;2023-08-06T05:43:04;100731.31;;;15.00;100.00
75414;BME280;64758;52.122;5.404;2023-08-06T05:45:31;100729.69;;;14.99;100.00
75414;BME280;64758;52.122;5.404;2023-08-06T05:47:58;100732.16;;;15.00;100.00
75414;BME280;64758;52.122;5.404;2023-08-06T05:50:25;100736.66;;;15.00;100.00
75414;BME280;64758;52.122;5.404;2023-08-06T05:52:51;100736.03;;;15.04;100.00
75414;BME280;64758;52.122;5.404;2023-08-06T05:55:19;100736.66;;;15.00;100.00
75414;BME280;64758;52.122;5.404;2023-08-06T05:57:46;100738.09;;;15.02;100.00
75414;BME280;64758;52.122;5.404;2023-08-06T06:00:13;100740.53;;;15.04;100.00
75414;BME280;64758;52.122;5.404;2023-08-06T06:02:40;100735.44;;;15.02;100.00
75414;BME280;64758;52.122;5.404;2023-08-06T06:05:06;100752.88;;;15.05;100.00
75414;BME280;64758;52.122;5.404;2023-08-06T06:07:33;100744.06;;;15.04;100.00
75414;BME280;64758;52.122;5.404;2023-08-06T06:10:00;100747.09;;;15.08;100.00
75414;BME280;64758;52.122;5.404;2023-08-06T06:12:26;100752.25;;;15.09;100.00
75414;BME280;64758;52.122;5.404;2023-08-06T06:14:53;100756.75;;;15.09;100.00
75414;BME280;64758;52.122;5.404;2023-08-06T06:17:20;100756.13;;;15.13;100.00
75414;BME280;64758;52.122;5.404;2023-08-06T06:19:47;100755.53;;;15.11;100.00
75414;BME280;64758;52.122;5.404;2023-08-06T06:22:13;100764.97;;;15.14;100.00
75414;BME280;64758;52.122;5.404;2023-08-06T06:24:40;100763.94;;;15.15;100.00
75414;BME280;64758;52.122;5.404;2023-08-06T06:27:07;100769.44;;;15.20;100.00
75414;BME280;64758;52.122;5.404;2023-08-06T06:29:33;100773.38;;;15.17;100.00
75414;BME280;64758;52.122;5.404;2023-08-06T06:32:00;100772.72;;;15.22;100.00
75414;BME280;64758;52.122;5.404;2023-08-06T06:34:26;100772.72;;;15.22;100.00
75414;BME280;64758;52.122;5.404;2023-08-06T06:36:53;100773.75;;;15.21;100.00
75414;BME280;64758;52.122;5.404;2023-08-06T06:39:20;100782.38;;;15.23;100.00
75414;BME280;64758;52.122;5.404;2023-08-06T06:41:47;100781.78;;;15.21;100.00
75414;BME280;64758;52.122;5.404;2023-08-06T06:44:14;100782.19;;;15.24;100.00
75414;BME280;64758;52.122;5.404;2023-08-06T06:46:41;100787.50;;;15.31;100.00
75414;BME280;64758;52.122;5.404;2023-08-06T06:49:08;100784.22;;;15.29;100.00
75414;BME280;64758;52.122;5.404;2023-08-06T06:51:34;100781.78;;;15.27;100.00
75414;BME280;64758;52.122;5.404;2023-08-06T06:54:02;100782.38;;;15.29;100.00
75414;BME280;64758;52.122;5.404;2023-08-06T06:56:29;100780.91;;;15.27;100.00
75414;BME280;64758;52.122;5.404;2023-08-06T06:58:55;100788.16;;;15.26;100.00
75414;BME280;64758;52.122;5.404;2023-08-06T07:01:22;100792.66;;;15.26;100.00
75414;BME280;64758;52.122;5.404;2023-08-06T07:03:49;100793.09;;;15.23;100.00
75414;BME280;64758;52.122;5.404;2023-08-06T07:06:15;100786.09;;;15.22;100.00
75414;BME280;64758;52.122;5.404;2023-08-06T07:08:45;100788.78;;;15.22;100.00
75414;BME280;64758;52.122;5.404;2023-08-06T07:11:11;100790.03;;;15.19;100.00
75414;BME280;64758;52.122;5.404;2023-08-06T07:13:38;100795.41;;;15.19;100.00
75414;BME280;64758;52.122;5.404;2023-08-06T07:16:04;100784.28;;;15.16;100.00
75414;BME280;64758;52.122;5.404;2023-08-06T07:18:32;100786.78;;;15.17;100.00
75414;BME280;64758;52.122;5.404;2023-08-06T07:20:59;100788.19;;;15.20;100.00
75414;BME280;64758;52.122;5.404;2023-08-06T07:23:26;100791.25;;;15.23;100.00
75414;BME280;64758;52.122;5.404;2023-08-06T07:25:52;100791.69;;;15.20;100.00
75414;BME280;64758;52.122;5.404;2023-08-06T07:28:19;100804.03;;;15.21;100.00
75414;BME280;64758;52.122;5.404;2023-08-06T07:30:46;100801.72;;;15.25;100.00
75414;BME280;64758;52.122;5.404;2023-08-06T07:33:13;100800.69;;;15.26;100.00
75414;BME280;64758;52.122;5.404;2023-08-06T07:35:39;100803.59;;;15.24;100.00
75414;BME280;64758;52.122;5.404;2023-08-06T07:38:06;100806.88;;;15.26;100.00
75414;BME280;64758;52.122;5.404;2023-08-06T07:40:35;100802.31;;;15.27;100.00
75414;BME280;64758;52.122;5.404;2023-08-06T07:43:02;100808.91;;;15.31;100.00
75414;BME280;64758;52.122;5.404;2023-08-06T07:45:32;100811.38;;;15.32;100.00
75414;BME280;64758;52.122;5.404;2023-08-06T07:47:59;100815.25;;;15.36;100.00
75414;BME280;64758;52.122;5.404;2023-08-06T07:50:25;100819.38;;;15.38;100.00
75414;BME280;64758;52.122;5.404;2023-08-06T07:52:52;100805.38;;;15.36;100.00
75414;BME280;64758;52.122;5.404;2023-08-06T07:55:19;100807.44;;;15.34;100.00
75414;BME280;64758;52.122;5.404;2023-08-06T07:57:45;100808.06;;;15.36;100.00
75414;BME280;64758;52.122;5.404;2023-08-06T08:00:12;100813.00;;;15.33;100.00
75414;BME280;64758;52.122;5.404;2023-08-06T08:02:38;100823.13;;;15.25;100.00
75414;BME280;64758;52.122;5.404;2023-08-06T08:05:05;100812.69;;;15.17;100.00
75414;BME280;64758;52.122;5.404;2023-08-06T08:07:33;100820.94;;;15.15;100.00
75414;BME280;64758;52.122;5.404;2023-08-06T08:10:00;100819.34;;;15.08;100.00
75414;BME280;64758;52.122;5.404;2023-08-06T08:12:27;100819.00;;;14.98;100.00
75414;BME280;64758;52.122;5.404;2023-08-06T08:14:53;100817.78;;;14.94;100.00
75414;BME280;64758;52.122;5.404;2023-08-06T08:17:20;100818.63;;;14.88;100.00
75414;BME280;64758;52.122;5.404;2023-08-06T08:19:46;100828.97;;;14.78;100.00
75414;BME280;64758;52.122;5.404;2023-08-06T08:22:13;100819.56;;;14.69;100.00
75414;BME280;64758;52.122;5.404;2023-08-06T08:24:39;100826.97;;;14.67;100.00
75414;BME280;64758;52.122;5.404;2023-08-06T08:27:06;100828.00;;;14.66;100.00
75414;BME280;64758;52.122;5.404;2023-08-06T08:29:32;100832.34;;;14.60;100.00
75414;BME280;64758;52.122;5.404;2023-08-06T08:31:59;100835.03;;;14.60;100.00
75414;BME280;64758;52.122;5.404;2023-08-06T08:34:26;100837.09;;;14.58;100.00
75414;BME280;64758;52.122;5.404;2023-08-06T08:36:52;100831.75;;;14.58;100.00
75414;BME280;64758;52.122;5.404;2023-08-06T08:39:19;100839.53;;;14.60;100.00
75414;BME280;64758;52.122;5.404;2023-08-06T08:41:45;100843.25;;;14.59;100.00
75414;BME280;64758;52.122;5.404;2023-08-06T08:44:13;100836.50;;;14.56;100.00
75414;BME280;64758;52.122;5.404;2023-08-06T08:46:43;100832.78;;;14.57;100.00
75414;BME280;64758;52.122;5.404;2023-08-06T08:49:11;100834.41;;;14.58;100.00
75414;BME280;64758;52.122;5.404;2023-08-06T08:51:37;100841.59;;;14.58;100.00
75414;BME280;64758;52.122;5.404;2023-08-06T08:54:04;100846.56;;;14.54;100.00
75414;BME280;64758;52.122;5.404;2023-08-06T08:56:34;100845.72;;;14.54;100.00
75414;BME280;64758;52.122;5.404;2023-08-06T08:59:00;100850.06;;;14.55;100.00
75414;BME280;64758;52.122;5.404;2023-08-06T09:01:27;100844.31;;;14.51;100.00
75414;BME280;64758;52.122;5.404;2023-08-06T09:03:55;100853.97;;;14.52;100.00
75414;BME280;64758;52.122;5.404;2023-08-06T09:06:25;100864.03;;;14.57;100.00
75414;BME280;64758;52.122;5.404;2023-08-06T09:09:01;100864.63;;;14.59;100.00
75414;BME280;64758;52.122;5.404;2023-08-06T09:11:38;100867.13;;;14.60;100.00
75414;BME280;64758;52.122;5.404;2023-08-06T09:14:07;100866.88;;;14.62;100.00
75414;BME280;64758;52.122;5.404;2023-08-06T09:16:35;100865.44;;;14.66;100.00
75414;BME280;64758;52.122;5.404;2023-08-06T09:19:11;100859.47;;;14.64;100.00
75414;BME280;64758;52.122;5.404;2023-08-06T09:21:40;100875.69;;;14.69;100.00
75414;BME280;64758;52.122;5.404;2023-08-06T09:24:08;100878.38;;;14.69;100.00
75414;BME280;64758;52.122;5.404;2023-08-06T09:26:44;100887.25;;;14.69;100.00
75414;BME280;64758;52.122;5.404;2023-08-06T09:29:11;100892.16;;;14.66;100.00
75414;BME280;64758;52.122;5.404;2023-08-06T09:34:15;100896.09;;;14.63;100.00
75414;BME280;64758;52.122;5.404;2023-08-06T09:36:43;100898.53;;;14.65;100.00
75414;BME280;64758;52.122;5.404;2023-08-06T09:39:13;100895.88;;;14.65;100.00
75414;BME280;64758;52.122;5.404;2023-08-06T09:41:41;100903.09;;;14.64;100.00
75414;BME280;64758;52.122;5.404;2023-08-06T09:44:21;100910.28;;;14.64;100.00
75414;BME280;64758;52.122;5.404;2023-08-06T09:46:49;100905.16;;;14.62;100.00
75414;BME280;64758;52.122;5.404;2023-08-06T09:49:18;100912.94;;;14.64;100.00
75414;BME280;64758;52.122;5.404;2023-08-06T09:51:48;100910.28;;;14.64;100.00
75414;BME280;64758;52.122;5.404;2023-08-06T09:54:19;100923.03;;;14.62;100.00
75414;BME280;64758;52.122;5.404;2023-08-06T09:56:54;100923.25;;;14.60;100.00
75414;BME280;64758;52.122;5.404;2023-08-06T09:59:23;100920.34;;;14.62;100.00
75414;BME280;64758;52.122;5.404;2023-08-06T10:01:50;100921.38;;;14.67;100.00
75414;BME280;64758;52.122;5.404;2023-08-06T10:04:18;100927.13;;;14.71;100.00
75414;BME280;64758;52.122;5.404;2023-08-06T10:06:50;100912.34;;;14.68;100.00
75414;BME280;64758;52.122;5.404;2023-08-06T10:09:17;100921.56;;;14.72;100.00
75414;BME280;64758;52.122;5.404;2023-08-06T10:11:50;100932.28;;;14.72;100.00
75414;BME280;64758;52.122;5.404;2023-08-06T10:14:25;100936.78;;;14.78;100.00
75414;BME280;64758;52.122;5.404;2023-08-06T10:16:54;100941.72;;;14.81;100.00
75414;BME280;64758;52.122;5.404;2023-08-06T10:19:23;100941.91;;;14.80;100.00
75414;BME280;64758;52.122;5.404;2023-08-06T10:22:12;100948.91;;;14.81;100.00
75414;BME280;64758;52.122;5.404;2023-08-06T10:27:28;100944.19;;;14.76;100.00
75414;BME280;64758;52.122;5.404;2023-08-06T10:29:55;100953.22;;;14.82;100.00
75414;BME280;64758;52.122;5.404;2023-08-06T10:32:47;100946.59;;;14.91;100.00
75414;BME280;64758;52.122;5.404;2023-08-06T10:35:37;100945.94;;;15.02;100.00
75414;BME280;64758;52.122;5.404;2023-08-06T10:40:31;100945.69;;;15.10;100.00
75414;BME280;64758;52.122;5.404;2023-08-06T10:43:03;100943.00;;;15.16;100.00
75414;BME280;64758;52.122;5.404;2023-08-06T10:45:34;100950.38;;;15.21;100.00
75414;BME280;64758;52.122;5.404;2023-08-06T10:48:01;100944.84;;;15.22;100.00
75414;BME280;64758;52.122;5.404;2023-08-06T10:50:28;100952.63;;;15.24;100.00
75414;BME280;64758;52.122;5.404;2023-08-06T10:52:55;100952.88;;;15.22;100.00
75414;BME280;64758;52.122;5.404;2023-08-06T10:55:28;100951.22;;;15.21;100.00
75414;BME280;64758;52.122;5.404;2023-08-06T10:57:55;100955.91;;;15.26;100.00
75414;BME280;64758;52.122;5.404;2023-08-06T11:00:22;100962.91;;;15.33;100.00
75414;BME280;64758;52.122;5.404;2023-08-06T11:02:53;100956.31;;;15.35;100.00
75414;BME280;64758;52.122;5.404;2023-08-06T11:05:20;100953.41;;;15.37;100.00
75414;BME280;64758;52.122;5.404;2023-08-06T11:07:46;100959.59;;;15.37;100.00
75414;BME280;64758;52.122;5.404;2023-08-06T11:10:16;100966.97;;;15.42;100.00
75414;BME280;64758;52.122;5.404;2023-08-06T11:12:43;100960.81;;;15.35;100.00
75414;BME280;64758;52.122;5.404;2023-08-06T11:15:10;100973.59;;;15.39;100.00
75414;BME280;64758;52.122;5.404;2023-08-06T11:17:40;100975.00;;;15.42;100.00
75414;BME280;64758;52.122;5.404;2023-08-06T11:20:08;100973.16;;;15.42;100.00
75414;BME280;64758;52.122;5.404;2023-08-06T11:22:36;100973.78;;;15.44;100.00
75414;BME280;64758;52.122;5.404;2023-08-06T11:25:05;100978.50;;;15.42;100.00
75414;BME280;64758;52.122;5.404;2023-08-06T11:27:32;100981.00;;;15.37;100.00
75414;BME280;64758;52.122;5.404;2023-08-06T11:29:58;100984.91;;;15.35;100.00
75414;BME280;64758;52.122;5.404;2023-08-06T11:32:25;100979.78;;;15.33;100.00
75414;BME280;64758;52.122;5.404;2023-08-06T11:34:54;100975.66;;;15.31;100.00
75414;BME280;64758;52.122;5.404;2023-08-06T11:37:23;101001.03;;;15.29;100.00
75414;BME280;64758;52.122;5.404;2023-08-06T11:39:52;100996.72;;;15.21;100.00
75414;BME280;64758;52.122;5.404;2023-08-06T11:42:18;101004.75;;;15.15;100.00
75414;BME280;64758;52.122;5.404;2023-08-06T11:44:45;100999.25;;;14.97;100.00
75414;BME280;64758;52.122;5.404;2023-08-06T11:47:14;101002.38;;;14.87;100.00
75414;BME280;64758;52.122;5.404;2023-08-06T11:49:47;100997.25;;;14.73;100.00
75414;BME280;64758;52.122;5.404;2023-08-06T11:52:16;101001.19;;;14.64;100.00
75414;BME280;64758;52.122;5.404;2023-08-06T11:54:47;101001.41;;;14.56;100.00
75414;BME280;64758;52.122;5.404;2023-08-06T11:57:15;101003.47;;;14.54;100.00
75414;BME280;64758;52.122;5.404;2023-08-06T11:59:43;100999.97;;;14.47;100.00
75414;BME280;64758;52.122;5.404;2023-08-06T12:02:11;100990.72;;;14.43;100.00
75414;BME280;64758;52.122;5.404;2023-08-06T12:05:01;100998.94;;;14.48;100.00
75414;BME280;64758;52.122;5.404;2023-08-06T12:07:29;101007.78;;;14.48;100.00
75414;BME280;64758;52.122;5.404;2023-08-06T12:09:57;101005.94;;;14.49;100.00
75414;BME280;64758;52.122;5.404;2023-08-06T12:12:24;101006.97;;;14.54;100.00
75414;BME280;64758;52.122;5.404;2023-08-06T12:14:51;101001.41;;;14.56;100.00
75414;BME280;64758;52.122;5.404;2023-08-06T12:17:18;101012.72;;;14.58;100.00
75414;BME280;64758;52.122;5.404;2023-08-06T12:19:45;101008.38;;;14.57;100.00
75414;BME280;64758;52.122;5.404;2023-08-06T12:22:13;101017.88;;;14.59;100.00
75414;BME280;64758;52.122;5.404;2023-08-06T12:24:41;101019.69;;;14.59;100.00
75414;BME280;64758;52.122;5.404;2023-08-06T12:27:09;101020.09;;;14.56;100.00
75414;BME280;64758;52.122;5.404;2023-08-06T12:29:37;101031.84;;;14.55;100.00
75414;BME280;64758;52.122;5.404;2023-08-06T12:32:06;101029.78;;;14.57;100.00
75414;BME280;64758;52.122;5.404;2023-08-06T12:34:33;101030.81;;;14.56;100.00
75414;BME280;64758;52.122;5.404;2023-08-06T12:37:17;101031.41;;;14.58;100.00
75414;BME280;64758;52.122;5.404;2023-08-06T12:39:44;101037.19;;;14.55;100.00
75414;BME280;64758;52.122;5.404;2023-08-06T12:42:10;101037.19;;;14.61;100.00
75414;BME280;64758;52.122;5.404;2023-08-06T12:44:37;101036.97;;;14.63;100.00
75414;BME280;64758;52.122;5.404;2023-08-06T12:47:04;101038.19;;;14.67;100.00
75414;BME280;64758;52.122;5.404;2023-08-06T12:49:30;101049.50;;;14.69;100.00
75414;BME280;64758;52.122;5.404;2023-08-06T12:51:59;101053.41;;;14.73;100.00
75414;BME280;64758;52.122;5.404;2023-08-06T12:54:27;101056.09;;;14.73;100.00